Time;durP1;ratioP1;P1;durP2;ratioP2;P2;SDS_P1;SDS_P2;PMS_P1;PMS_P2;Temp;Humidity;BMP_temperature;BMP_pressure;BME280_temperature;BME280_humidity;BME280_pressure;Samples;Min_cycle;Max_cycle;Signal;HPM_P1;HPM_P2
2023/12/23 00:01:46;;;;;;;5.65;1.60;;;;;;;6.79;100.00;100975.94;5035750;28;20483;-57
2023/12/23 00:04:11;;;;;;;7.10;1.75;;;;;;;6.80;100.00;100977.66;5042101;28;20026;-57
2023/12/23 00:06:37;;;;;;;6.60;1.67;;;;;;;6.82;100.00;100982.84;5040486;28;20036;-56
2023/12/23 00:09:02;;;;;;;5.88;1.60;;;;;;;6.82;100.00;100978.41;5037632;28;20021;-55
2023/12/23 00:11:27;;;;;;;7.45;1.80;;;;;;;6.84;100.00;100986.25;5043503;28;20025;-55
2023/12/23 00:13:53;;;;;;;8.35;1.73;;;;;;;6.87;100.00;100979.94;5034987;28;20913;-56
2023/12/23 00:16:18;;;;;;;5.75;1.88;;;;;;;6.88;100.00;100986.91;5036018;28;20021;-54
2023/12/23 00:18:44;;;;;;;7.22;1.98;;;;;;;6.89;100.00;100991.25;5038827;28;20421;-57
2023/12/23 00:21:10;;;;;;;6.18;2.10;;;;;;;6.90;100.00;100972.69;5043211;28;20147;-55
2023/12/23 00:23:35;;;;;;;5.57;1.80;;;;;;;6.89;100.00;100964.84;5034293;28;20024;-56
2023/12/23 00:26:00;;;;;;;6.60;2.08;;;;;;;6.90;100.00;100969.22;5038565;28;20037;-56
2023/12/23 00:28:25;;;;;;;6.25;2.10;;;;;;;6.91;100.00;100968.25;5038024;28;20032;-57
2023/12/23 00:30:51;;;;;;;7.95;2.00;;;;;;;6.91;100.00;100963.84;5039236;28;20044;-55
2023/12/23 00:33:16;;;;;;;9.93;2.45;;;;;;;6.92;100.00;100959.41;5040729;28;20509;-54
2023/12/23 00:35:42;;;;;;;9.55;2.30;;;;;;;6.93;100.00;100958.44;5040592;28;20033;-55
2023/12/23 00:38:08;;;;;;;9.23;2.33;;;;;;;6.98;100.00;100949.31;5034426;28;20060;-56
2023/12/23 00:40:33;;;;;;;16.10;2.92;;;;;;;7.02;100.00;100958.75;5038692;28;20027;-56
2023/12/23 00:42:58;;;;;;;13.15;2.97;;;;;;;7.12;100.00;100943.19;5034585;28;20509;-57
2023/12/23 00:45:24;;;;;;;15.10;3.00;;;;;;;7.21;100.00;100941.78;5043375;28;20071;-55
2023/12/23 00:47:49;;;;;;;7.63;2.75;;;;;;;7.32;100.00;100941.97;5037934;28;20374;-57
2023/12/23 00:50:14;;;;;;;11.05;3.00;;;;;;;7.42;100.00;100936.97;5034623;28;20124;-55
2023/12/23 00:52:40;;;;;;;11.82;3.03;;;;;;;7.48;100.00;100947.19;5041310;28;20025;-56
2023/12/23 00:55:05;;;;;;;12.45;3.30;;;;;;;7.56;100.00;100933.47;5029226;28;20032;-57
2023/12/23 00:57:31;;;;;;;16.42;3.13;;;;;;;7.61;100.00;100931.41;5039587;28;20029;-56
2023/12/23 00:59:56;;;;;;;13.00;2.90;;;;;;;7.66;100.00;100931.97;5029477;28;20022;-55
2023/12/23 01:02:21;;;;;;;12.38;3.08;;;;;;;7.73;100.00;100924.50;5023115;28;20033;-57
2023/12/23 01:04:47;;;;;;;13.07;3.00;;;;;;;7.80;100.00;100922.31;5033467;28;20072;-57
2023/12/23 01:07:12;;;;;;;13.45;2.88;;;;;;;7.83;100.00;100927.38;5033140;28;20026;-57
2023/12/23 01:09:37;;;;;;;17.05;3.03;;;;;;;7.85;100.00;100929.00;5041128;28;20026;-57
2023/12/23 01:12:03;;;;;;;15.07;2.50;;;;;;;7.89;100.00;100924.34;5038988;28;20033;-56
2023/12/23 01:14:28;;;;;;;15.50;3.25;;;;;;;7.89;100.00;100922.59;5032897;28;20421;-55
2023/12/23 01:16:54;;;;;;;12.20;3.10;;;;;;;7.92;100.00;100914.44;5038352;28;20433;-55
2023/12/23 01:19:19;;;;;;;11.80;2.70;;;;;;;7.93;100.00;100913.50;5041115;28;20033;-55
2023/12/23 01:21:44;;;;;;;11.10;2.58;;;;;;;7.96;100.00;100913.28;5041321;28;20356;-56
2023/12/23 01:24:09;;;;;;;13.05;2.80;;;;;;;8.00;100.00;100891.94;5038719;28;20029;-56
2023/12/23 01:26:35;;;;;;;14.90;3.10;;;;;;;8.01;100.00;100909.50;5034206;28;20518;-55
2023/12/23 01:29:00;;;;;;;13.40;2.90;;;;;;;8.01;100.00;100894.50;5034935;28;20079;-56
2023/12/23 01:31:29;;;;;;;13.90;2.72;;;;;;;8.05;100.00;100900.44;5040645;28;20064;-56
2023/12/23 01:33:54;;;;;;;15.10;2.78;;;;;;;8.08;100.00;100902.88;5033735;28;20041;-56
2023/12/23 01:36:20;;;;;;;13.98;2.72;;;;;;;8.09;100.00;100893.97;5011531;28;20025;-56
2023/12/23 01:38:45;;;;;;;14.70;2.92;;;;;;;8.10;100.00;100898.31;5040614;28;20040;-55
2023/12/23 01:41:10;;;;;;;13.90;2.45;;;;;;;8.11;100.00;100895.59;5036766;28;20105;-56
2023/12/23 01:43:35;;;;;;;13.77;2.83;;;;;;;8.16;100.00;100892.66;5037394;28;20029;-56
2023/12/23 01:46:01;;;;;;;9.27;3.00;;;;;;;8.15;100.00;100898.88;5035900;28;20049;-56
2023/12/23 01:48:28;;;;;;;11.75;3.00;;;;;;;8.18;100.00;100889.88;5035934;28;20029;-55
2023/12/23 01:50:55;;;;;;;11.35;2.92;;;;;;;8.20;100.00;100890.63;5036505;28;20040;-56
2023/12/23 01:53:21;;;;;;;9.48;2.67;;;;;;;8.20;100.00;100888.84;5036994;28;20017;-57
2023/12/23 01:55:48;;;;;;;12.45;2.90;;;;;;;8.21;100.00;100905.53;5040680;28;20679;-56
2023/12/23 01:58:14;;;;;;;14.68;2.75;;;;;;;8.22;100.00;100897.50;5035753;28;20029;-56
2023/12/23 02:00:39;;;;;;;17.98;3.30;;;;;;;8.24;100.00;100900.91;5039092;28;20025;-56
2023/12/23 02:03:05;;;;;;;9.57;2.80;;;;;;;8.24;100.00;100887.66;5035084;28;20080;-57
2023/12/23 02:05:30;;;;;;;9.18;2.75;;;;;;;8.26;100.00;100887.56;5036514;28;20065;-56
2023/12/23 02:07:56;;;;;;;10.32;2.75;;;;;;;8.26;100.00;100882.28;5037157;28;20092;-58
2023/12/23 02:10:21;;;;;;;10.13;2.60;;;;;;;8.23;100.00;100878.03;5035260;28;20036;-56
2023/12/23 02:13:10;;;;;;;8.45;2.85;;;;;;;8.23;100.00;100870.13;5039975;28;20033;-56
2023/12/23 02:15:36;;;;;;;;;;;;;;;8.25;100.00;100868.19;5041631;28;20073;-57
2023/12/23 02:18:02;;;;;;;10.20;2.50;;;;;;;8.19;100.00;100862.47;5037084;28;19913;-57
2023/12/23 02:20:28;;;;;;;12.57;3.03;;;;;;;8.14;100.00;100863.63;5036963;28;20045;-56
2023/12/23 02:22:53;;;;;;;14.93;2.60;;;;;;;8.14;100.00;100860.13;5040704;28;20490;-58
2023/12/23 02:25:20;;;;;;;10.77;3.30;;;;;;;8.14;100.00;100865.41;5039567;28;20052;-57
2023/12/23 02:27:52;;;;;;;12.82;2.67;;;;;;;8.13;100.00;100863.75;5036893;28;20462;-57
2023/12/23 02:30:18;;;;;;;16.05;3.00;;;;;;;8.13;100.00;100877.81;5035598;28;20037;-55
2023/12/23 02:32:44;;;;;;;13.40;2.88;;;;;;;8.14;100.00;100874.22;5007605;28;20274;-57
2023/12/23 02:35:11;;;;;;;13.88;2.97;;;;;;;8.13;100.00;100872.50;5037189;28;20025;-56
2023/12/23 02:37:36;;;;;;;15.00;3.40;;;;;;;8.14;100.00;100868.06;5037745;28;20029;-56
2023/12/23 02:40:02;;;;;;;11.40;2.53;;;;;;;8.15;100.00;100869.78;5034879;28;20102;-56
2023/12/23 02:42:27;;;;;;;12.32;3.17;;;;;;;8.18;100.00;100866.94;5036205;28;20021;-57
2023/12/23 02:44:52;;;;;;;8.90;2.67;;;;;;;8.19;100.00;100858.03;5037743;28;20021;-55
2023/12/23 02:47:18;;;;;;;10.65;2.60;;;;;;;8.20;100.00;100861.53;5037180;28;20040;-57
2023/12/23 02:49:43;;;;;;;14.27;3.53;;;;;;;8.21;100.00;100853.50;5038722;28;20021;-57
2023/12/23 02:52:08;;;;;;;14.45;3.08;;;;;;;8.23;100.00;100841.00;5038331;28;20038;-57
2023/12/23 02:54:33;;;;;;;11.65;2.95;;;;;;;8.25;100.00;100836.44;5033588;28;20479;-57
2023/12/23 02:56:59;;;;;;;15.25;3.22;;;;;;;8.26;100.00;100843.44;5039916;28;20040;-57
2023/12/23 02:59:24;;;;;;;11.20;2.70;;;;;;;8.27;100.00;100849.59;5035407;28;20044;-56
2023/12/23 03:01:49;;;;;;;12.50;2.97;;;;;;;8.29;100.00;100837.97;5032247;28;20040;-56
2023/12/23 03:04:15;;;;;;;13.90;3.08;;;;;;;8.30;100.00;100830.84;5034534;28;20034;-57
2023/12/23 03:06:40;;;;;;;13.57;3.05;;;;;;;8.32;100.00;100835.09;5036962;28;20504;-56
2023/12/23 03:09:06;;;;;;;9.73;3.10;;;;;;;8.33;100.00;100828.84;5032752;28;20025;-57
2023/12/23 03:11:31;;;;;;;15.40;3.20;;;;;;;8.39;100.00;100822.28;5040634;28;20120;-56
2023/12/23 03:13:56;;;;;;;11.82;2.75;;;;;;;8.35;100.00;100828.75;5042120;28;20037;-57
2023/12/23 03:16:21;;;;;;;9.73;2.70;;;;;;;8.38;100.00;100838.28;5034801;28;20387;-56
2023/12/23 03:18:48;;;;;;;13.85;3.00;;;;;;;8.38;100.00;100835.66;5039533;28;20131;-56
2023/12/23 03:21:13;;;;;;;11.98;2.92;;;;;;;8.39;100.00;100835.50;5038840;28;20108;-57
2023/12/23 03:23:38;;;;;;;12.90;3.40;;;;;;;8.39;100.00;100840.81;5041339;28;20033;-57
2023/12/23 03:26:03;;;;;;;12.93;2.65;;;;;;;8.39;100.00;100830.22;5040251;28;20486;-57
2023/12/23 03:28:29;;;;;;;11.10;2.50;;;;;;;8.39;100.00;100830.22;5042519;28;20035;-56
2023/12/23 03:30:54;;;;;;;13.77;2.92;;;;;;;8.39;100.00;100837.31;5041055;28;20105;-56
2023/12/23 03:33:19;;;;;;;13.38;3.35;;;;;;;8.39;100.00;100839.97;5045666;28;20028;-58
2023/12/23 03:35:45;;;;;;;14.43;3.28;;;;;;;8.39;100.00;100824.94;5036552;28;20068;-57
2023/12/23 03:38:10;;;;;;;14.15;3.00;;;;;;;8.40;100.00;100820.50;5036448;28;20120;-56
2023/12/23 03:40:35;;;;;;;12.27;3.00;;;;;;;8.44;100.00;100832.59;5040970;28;20436;-56
2023/12/23 03:43:01;;;;;;;10.85;3.47;;;;;;;8.43;100.00;100820.34;5037108;28;20060;-55
2023/12/23 03:45:26;;;;;;;10.60;2.88;;;;;;;8.45;100.00;100829.00;5042549;28;20370;-56
2023/12/23 03:47:51;;;;;;;11.88;3.17;;;;;;;8.46;100.00;100822.75;5039025;28;20390;-56
2023/12/23 03:50:17;;;;;;;10.48;2.80;;;;;;;8.52;100.00;100828.47;5040656;28;20021;-52
2023/12/23 03:52:42;;;;;;;13.13;3.08;;;;;;;8.51;100.00;100816.19;5036785;28;20120;-56
2023/12/23 03:55:10;;;;;;;8.20;2.50;;;;;;;8.51;100.00;100824.16;5039934;28;20032;-56
2023/12/23 03:57:36;;;;;;;10.57;3.13;;;;;;;8.54;100.00;100819.59;5037055;28;20120;-56
2023/12/23 04:00:01;;;;;;;11.07;3.35;;;;;;;8.55;100.00;100816.00;5037985;28;20467;-58
2023/12/23 04:02:26;;;;;;;12.88;2.90;;;;;;;8.56;100.00;100823.84;5042154;28;20091;-57
2023/12/23 04:04:52;;;;;;;11.45;2.72;;;;;;;8.59;100.00;100813.00;5043572;28;20044;-56
2023/12/23 04:07:17;;;;;;;11.85;3.13;;;;;;;8.59;100.00;100814.81;5038605;28;20120;-56
2023/12/23 04:09:42;;;;;;;15.18;3.40;;;;;;;8.58;100.00;100811.34;5041488;28;20387;-56
2023/12/23 04:12:09;;;;;;;8.13;2.70;;;;;;;8.60;100.00;100811.22;5035982;28;20036;-56
2023/12/23 04:14:37;;;;;;;13.07;3.05;;;;;;;8.60;100.00;100820.00;5040739;28;20437;-56
2023/12/23 04:17:02;;;;;;;9.82;3.33;;;;;;;8.56;100.00;100807.09;5032811;28;20041;-56
2023/12/23 04:19:27;;;;;;;10.18;2.90;;;;;;;8.54;100.00;100812.47;5039326;28;20033;-57
2023/12/23 04:21:53;;;;;;;11.90;3.15;;;;;;;8.53;100.00;100794.91;5036718;28;20032;-56
2023/12/23 04:24:19;;;;;;;10.98;2.65;;;;;;;8.50;100.00;100806.56;5035880;28;20033;-57
2023/12/23 04:26:45;;;;;;;10.45;2.72;;;;;;;8.52;100.00;100815.22;5039704;28;20040;-57
2023/12/23 04:29:11;;;;;;;13.65;3.55;;;;;;;8.52;100.00;100793.22;5038459;28;20386;-57
2023/12/23 04:31:36;;;;;;;9.75;2.85;;;;;;;8.52;100.00;100783.47;5013629;28;20030;-57
2023/12/23 04:34:02;;;;;;;12.77;3.15;;;;;;;8.49;100.00;100780.19;5043250;28;20037;-56
2023/12/23 04:36:27;;;;;;;11.07;2.50;;;;;;;8.50;100.00;100773.94;5036981;28;20032;-56
2023/12/23 04:38:52;;;;;;;13.68;3.03;;;;;;;8.48;100.00;100774.06;5035497;28;20118;-57
2023/12/23 04:41:17;;;;;;;10.00;3.20;;;;;;;8.48;100.00;100757.34;5038602;28;20052;-57
2023/12/23 04:43:43;;;;;;;10.10;3.13;;;;;;;8.47;100.00;100768.88;5035891;28;20099;-57
2023/12/23 04:46:08;;;;;;;7.85;2.47;;;;;;;8.46;100.00;100772.44;5042086;28;20030;-57
2023/12/23 04:48:33;;;;;;;11.38;2.88;;;;;;;8.45;100.00;100762.84;5041400;28;20082;-57
2023/12/23 04:50:59;;;;;;;14.98;2.97;;;;;;;8.44;100.00;100762.00;5036978;28;20068;-57
2023/12/23 04:53:24;;;;;;;11.38;2.90;;;;;;;8.45;100.00;100765.47;5040583;28;20044;-57
2023/12/23 04:55:50;;;;;;;9.95;2.92;;;;;;;8.44;100.00;100762.00;5038337;28;20438;-57
2023/12/23 04:58:15;;;;;;;14.20;3.13;;;;;;;8.45;100.00;100761.03;5040580;28;20030;-57
2023/12/23 05:00:40;;;;;;;13.00;3.15;;;;;;;8.46;100.00;100769.81;5040679;28;20478;-57
2023/12/23 05:03:06;;;;;;;11.52;3.13;;;;;;;8.45;100.00;100754.91;5033008;28;20029;-57
2023/12/23 05:05:31;;;;;;;11.73;2.70;;;;;;;8.45;100.00;100746.97;5036165;28;20032;-57
2023/12/23 05:07:56;;;;;;;10.60;2.90;;;;;;;8.45;100.00;100774.25;5038197;28;20174;-57
2023/12/23 05:10:21;;;;;;;10.32;2.60;;;;;;;8.43;100.00;100768.22;5032986;28;20022;-57
2023/12/23 05:12:47;;;;;;;13.40;2.95;;;;;;;8.47;100.00;100758.28;5036702;28;20491;-56
2023/12/23 05:15:12;;;;;;;15.10;2.92;;;;;;;8.42;100.00;100757.72;5039543;28;20099;-56
2023/12/23 05:17:37;;;;;;;13.45;2.88;;;;;;;8.44;100.00;100753.19;5040469;28;20029;-57
2023/12/23 05:20:03;;;;;;;12.43;2.88;;;;;;;8.46;100.00;100759.22;5037899;28;20025;-56
2023/12/23 05:22:28;;;;;;;8.85;2.90;;;;;;;8.44;100.00;100761.13;5043322;28;20064;-54
2023/12/23 05:24:54;;;;;;;11.30;2.60;;;;;;;8.48;100.00;100762.63;5040389;28;20442;-55
2023/12/23 05:27:19;;;;;;;15.00;2.80;;;;;;;8.45;100.00;100747.78;5038970;28;20080;-56
2023/12/23 05:29:45;;;;;;;14.43;2.92;;;;;;;8.46;100.00;100745.97;5039545;28;20025;-57
2023/12/23 05:32:10;;;;;;;12.10;2.75;;;;;;;8.48;100.00;100744.09;5040418;28;20034;-56
2023/12/23 05:34:37;;;;;;;10.80;2.65;;;;;;;8.48;100.00;100744.09;5040165;28;20071;-55
2023/12/23 05:37:02;;;;;;;11.85;3.00;;;;;;;8.49;100.00;100748.41;5038742;28;20108;-57
2023/12/23 05:39:27;;;;;;;11.05;3.47;;;;;;;8.50;100.00;100743.03;5039330;28;20100;-56
2023/12/23 05:41:53;;;;;;;11.68;2.70;;;;;;;8.50;100.00;100726.31;5036505;28;20025;-54
2023/12/23 05:44:18;;;;;;;11.02;3.20;;;;;;;8.51;100.00;100734.16;5038919;28;20429;-56
2023/12/23 05:46:43;;;;;;;11.20;3.10;;;;;;;8.51;100.00;100731.50;5041301;28;20033;-56
2023/12/23 05:49:08;;;;;;;14.40;2.67;;;;;;;8.52;100.00;100737.63;5037641;28;20026;-56
2023/12/23 05:51:34;;;;;;;12.30;2.90;;;;;;;8.52;100.00;100749.06;5039894;28;20029;-57
2023/12/23 05:53:59;;;;;;;13.40;3.13;;;;;;;8.57;100.00;100750.53;5036635;28;20159;-56
2023/12/23 05:56:25;;;;;;;8.57;2.88;;;;;;;8.58;100.00;100753.09;5039557;28;20111;-56
2023/12/23 05:58:50;;;;;;;14.27;3.72;;;;;;;8.59;100.00;100753.94;5039107;28;20025;-56
2023/12/23 06:01:16;;;;;;;15.82;3.40;;;;;;;8.59;100.00;100765.34;5037768;28;20026;-57
2023/12/23 06:03:41;;;;;;;12.48;3.05;;;;;;;8.60;100.00;100748.53;5040429;28;20025;-56
2023/12/23 06:06:06;;;;;;;10.88;2.80;;;;;;;8.60;100.00;100747.69;5042998;28;20026;-55
2023/12/23 06:08:32;;;;;;;17.35;3.30;;;;;;;8.59;100.00;100753.94;5020549;28;20064;-55
2023/12/23 06:10:57;;;;;;;12.70;3.60;;;;;;;8.61;100.00;100752.00;5038629;28;20500;-56
2023/12/23 06:13:22;;;;;;;10.43;2.97;;;;;;;8.63;100.00;100734.25;5036709;28;20049;-56
2023/12/23 06:15:47;;;;;;;14.43;3.60;;;;;;;8.63;100.00;100739.53;5036111;28;20021;-54
2023/12/23 06:18:13;;;;;;;13.23;3.15;;;;;;;8.64;100.00;100734.13;5033006;28;20097;-56
2023/12/23 06:20:38;;;;;;;14.02;3.63;;;;;;;8.62;100.00;100738.66;5036295;28;20022;-56
2023/12/23 06:23:03;;;;;;;8.75;3.00;;;;;;;8.65;100.00;100727.03;5035421;28;20483;-55
2023/12/23 06:25:32;;;;;;;13.45;3.67;;;;;;;8.64;100.00;100744.72;5035715;28;20030;-54
2023/12/23 06:27:57;;;;;;;13.32;3.25;;;;;;;8.67;100.00;100739.19;5035630;28;20383;-55
2023/12/23 06:30:22;;;;;;;14.93;3.30;;;;;;;8.69;100.00;100736.44;5036742;28;20025;-53
2023/12/23 06:32:48;;;;;;;9.35;2.78;;;;;;;8.67;100.00;100720.66;5036006;28;20018;-52
2023/12/23 06:35:13;;;;;;;9.05;2.65;;;;;;;8.69;100.00;100747.03;5032883;28;20029;-55
2023/12/23 06:37:38;;;;;;;15.38;3.20;;;;;;;8.72;100.00;100738.03;5034602;28;20441;-55
2023/12/23 06:40:04;;;;;;;11.02;3.20;;;;;;;8.72;100.00;100740.69;5011251;28;20052;-55
2023/12/23 06:42:30;;;;;;;14.02;3.03;;;;;;;8.73;100.00;100756.47;5032069;28;20474;-56
2023/12/23 06:44:55;;;;;;;10.57;3.30;;;;;;;8.73;100.00;100743.22;5030553;28;20020;-56
2023/12/23 06:47:20;;;;;;;11.30;3.30;;;;;;;8.74;100.00;100752.84;5034732;28;20429;-56
2023/12/23 06:49:45;;;;;;;13.45;3.60;;;;;;;8.78;100.00;100745.56;5035982;28;20058;-55
2023/12/23 06:52:11;;;;;;;13.75;3.45;;;;;;;8.78;100.00;100737.63;5030603;28;20041;-56
2023/12/23 06:54:36;;;;;;;12.85;3.00;;;;;;;8.81;100.00;100747.97;5012914;28;20017;-55
2023/12/23 06:57:01;;;;;;;12.85;3.17;;;;;;;8.79;100.00;100750.75;5033858;28;20220;-52
2023/12/23 06:59:27;;;;;;;12.93;3.35;;;;;;;8.77;100.00;100734.09;5038894;28;20032;-57
2023/12/23 07:01:52;;;;;;;13.60;3.22;;;;;;;8.80;100.00;100731.25;5031102;28;20478;-57
2023/12/23 07:04:17;;;;;;;12.90;3.17;;;;;;;8.81;100.00;100730.28;5030015;28;20021;-55
2023/12/23 07:06:42;;;;;;;12.60;3.20;;;;;;;8.81;100.00;100726.78;5034195;28;20405;-56
2023/12/23 07:09:08;;;;;;;12.48;3.40;;;;;;;8.79;100.00;100726.91;5034239;28;20065;-56
2023/12/23 07:11:33;;;;;;;13.48;3.25;;;;;;;8.80;100.00;100722.47;5029612;28;20022;-55
2023/12/23 07:13:59;;;;;;;19.45;3.45;;;;;;;8.81;100.00;100732.06;5028376;28;20478;-56
2023/12/23 07:16:24;;;;;;;13.20;3.00;;;;;;;8.82;100.00;100710.78;5010679;28;20056;-56
2023/12/23 07:18:49;;;;;;;11.52;2.85;;;;;;;8.82;100.00;100728.47;5027683;28;20382;-56
2023/12/23 07:21:15;;;;;;;11.82;3.63;;;;;;;8.83;100.00;100728.38;5028761;28;20112;-56
2023/12/23 07:23:40;;;;;;;11.88;2.80;;;;;;;8.84;100.00;100723.91;5029729;28;20068;-56
2023/12/23 07:26:11;;;;;;;13.77;3.20;;;;;;;8.87;100.00;100751.03;5029774;28;20023;-55
2023/12/23 07:28:37;;;;;;;11.57;3.30;;;;;;;8.87;100.00;100747.53;5028224;28;20033;-56
2023/12/23 07:31:02;;;;;;;14.38;3.20;;;;;;;8.89;100.00;100746.50;5029721;28;20112;-56
2023/12/23 07:33:28;;;;;;;13.35;3.45;;;;;;;8.89;100.00;100742.97;5028183;28;20254;-57
2023/12/23 07:35:54;;;;;;;15.18;3.03;;;;;;;8.88;100.00;100754.53;5031827;28;20022;-56
2023/12/23 07:38:19;;;;;;;12.27;3.65;;;;;;;8.91;100.00;100749.03;5033053;28;20032;-56
2023/12/23 07:40:45;;;;;;;13.25;3.03;;;;;;;8.97;100.00;100763.63;5016584;28;20076;-57
2023/12/23 07:43:10;;;;;;;13.70;3.35;;;;;;;8.95;100.00;100760.25;5026490;28;20464;-54
2023/12/23 07:45:35;;;;;;;16.77;2.95;;;;;;;8.98;100.00;100760.88;5038318;28;20036;-56
2023/12/23 07:48:00;;;;;;;9.55;2.55;;;;;;;8.98;100.00;100760.03;5031801;28;20113;-56
2023/12/23 07:50:27;;;;;;;11.52;2.60;;;;;;;9.01;100.00;100755.34;5033322;28;20064;-57
2023/12/23 07:52:52;;;;;;;10.98;3.00;;;;;;;9.02;100.00;100753.53;5031810;28;20061;-57
2023/12/23 07:55:17;;;;;;;13.52;2.78;;;;;;;9.00;100.00;100739.56;5036328;28;20504;-57
2023/12/23 07:57:42;;;;;;;9.93;2.60;;;;;;;8.98;100.00;100730.91;5030146;28;20041;-57
2023/12/23 08:00:09;;;;;;;13.75;3.33;;;;;;;8.99;100.00;100740.50;5037268;28;20025;-56
2023/12/23 08:02:35;;;;;;;18.58;2.83;;;;;;;8.97;100.00;100739.78;5025937;28;20022;-58
2023/12/23 08:05:00;;;;;;;9.93;2.85;;;;;;;8.96;100.00;100748.69;5035771;28;20441;-57
2023/12/23 08:07:25;;;;;;;13.10;2.80;;;;;;;8.95;100.00;100750.50;5028906;28;20033;-56
2023/12/23 08:09:51;;;;;;;11.95;2.72;;;;;;;8.93;100.00;100751.56;5035669;28;20025;-57
2023/12/23 08:12:16;;;;;;;11.70;2.97;;;;;;;8.91;100.00;100741.09;5030047;28;20116;-57
2023/12/23 08:14:41;;;;;;;11.77;2.67;;;;;;;8.90;100.00;100755.28;5039927;28;20049;-57
2023/12/23 08:17:06;;;;;;;10.95;2.42;;;;;;;8.92;100.00;100757.81;5032923;28;20075;-57
2023/12/23 08:19:32;;;;;;;8.77;2.53;;;;;;;8.91;100.00;100756.97;5022818;28;20033;-58
2023/12/23 08:21:57;;;;;;;12.65;2.60;;;;;;;8.91;100.00;100764.94;5041301;28;20390;-57
2023/12/23 08:24:22;;;;;;;9.90;2.67;;;;;;;8.93;100.00;100752.41;5037577;28;20028;-58
2023/12/23 08:26:48;;;;;;;8.70;2.85;;;;;;;8.95;100.00;100758.44;5034063;28;20386;-57
2023/12/23 08:29:13;;;;;;;8.73;2.60;;;;;;;8.96;100.00;100753.97;5041290;28;20425;-58
2023/12/23 08:31:43;;;;;;;11.02;2.47;;;;;;;8.98;100.00;100770.63;5037741;28;20027;-56
2023/12/23 08:34:08;;;;;;;10.55;2.55;;;;;;;8.96;100.00;100777.81;5036318;28;20123;-56
2023/12/23 08:36:34;;;;;;;13.27;2.83;;;;;;;8.96;100.00;100757.50;5041351;28;20135;-57
2023/12/23 08:38:59;;;;;;;13.57;2.80;;;;;;;8.99;100.00;100770.53;5017101;28;20037;-57
2023/12/23 08:41:24;;;;;;;14.52;2.90;;;;;;;8.98;100.00;100765.34;5035455;28;20033;-57
2023/12/23 08:43:50;;;;;;;12.98;2.88;;;;;;;8.99;100.00;100780.25;5042444;28;20131;-57
2023/12/23 08:46:15;;;;;;;12.73;2.60;;;;;;;9.00;100.00;100784.59;5036700;28;20079;-56
2023/12/23 08:48:40;;;;;;;12.93;2.80;;;;;;;8.99;100.00;100767.00;5035605;28;20021;-57
2023/12/23 08:51:07;;;;;;;9.70;2.45;;;;;;;8.98;100.00;100768.81;5036035;28;20033;-57
2023/12/23 08:53:33;;;;;;;12.27;2.63;;;;;;;8.99;100.00;100765.22;5040538;28;20037;-57
2023/12/23 08:55:58;;;;;;;9.50;2.47;;;;;;;9.00;100.00;100772.19;5039108;28;20067;-56
2023/12/23 08:58:25;;;;;;;10.65;2.25;;;;;;;8.97;100.00;100779.53;5036874;28;20025;-56
2023/12/23 09:00:50;;;;;;;15.85;2.40;;;;;;;8.96;100.00;100780.47;5036971;28;20514;-57
2023/12/23 09:03:15;;;;;;;11.98;3.08;;;;;;;8.93;100.00;100793.94;5041866;28;20021;-57
2023/12/23 09:05:42;;;;;;;11.45;2.55;;;;;;;8.89;100.00;100801.25;5029045;28;20026;-57
2023/12/23 09:08:07;;;;;;;8.38;2.63;;;;;;;8.85;100.00;100797.13;5036761;28;20025;-58
2023/12/23 09:10:33;;;;;;;11.68;2.50;;;;;;;8.84;100.00;100813.97;5041502;28;20147;-58
2023/12/23 09:12:58;;;;;;;10.55;2.83;;;;;;;8.79;100.00;100803.72;5038592;28;20471;-57
2023/12/23 09:15:24;;;;;;;11.88;3.55;;;;;;;8.79;100.00;100821.38;5040024;28;20032;-58
2023/12/23 09:17:50;;;;;;;10.98;2.83;;;;;;;8.75;100.00;100806.69;5041289;28;20067;-56
2023/12/23 09:20:15;;;;;;;14.70;2.63;;;;;;;8.74;100.00;100807.63;5035714;28;20085;-57
2023/12/23 09:22:40;;;;;;;10.90;2.85;;;;;;;8.69;100.00;100814.09;5037131;28;20541;-57
2023/12/23 09:25:06;;;;;;;10.70;2.33;;;;;;;8.69;100.00;100818.53;5037798;28;20025;-57
2023/12/23 09:27:32;;;;;;;13.40;3.17;;;;;;;8.69;100.00;100824.69;5039281;28;20485;-57
2023/12/23 09:29:58;;;;;;;9.85;2.60;;;;;;;8.68;100.00;100812.38;5035992;28;20052;-57
2023/12/23 09:32:23;;;;;;;13.57;3.33;;;;;;;8.69;100.00;100822.03;5038163;28;20033;-57
2023/12/23 09:34:49;;;;;;;7.72;2.67;;;;;;;8.70;100.00;100810.47;5035667;28;20045;-57
2023/12/23 09:37:14;;;;;;;13.23;2.83;;;;;;;8.73;100.00;100795.31;5036534;28;20395;-58
2023/12/23 09:39:40;;;;;;;13.98;2.70;;;;;;;8.74;100.00;100794.38;5032149;28;20056;-56
2023/12/23 09:42:06;;;;;;;11.65;2.53;;;;;;;8.75;100.00;100802.22;5035173;28;20043;-57
2023/12/23 09:44:32;;;;;;;9.15;2.33;;;;;;;8.78;100.00;100809.13;5034902;28;20483;-57
2023/12/23 09:46:57;;;;;;;14.55;3.13;;;;;;;8.83;100.00;100822.88;5041234;28;20022;-58
2023/12/23 09:49:24;;;;;;;10.52;2.60;;;;;;;8.81;100.00;100820.34;5036986;28;20412;-55
2023/12/23 09:51:50;;;;;;;7.47;2.70;;;;;;;8.82;100.00;100821.19;5034638;28;20394;-57
2023/12/23 09:54:19;;;;;;;11.32;2.65;;;;;;;8.84;100.00;100816.63;5030922;28;20029;-58
2023/12/23 09:56:46;;;;;;;;;;;;;;;8.93;100.00;100815.97;5033286;28;20029;-57
2023/12/23 09:59:11;;;;;;;9.85;3.45;;;;;;;8.92;100.00;100810.78;5043934;28;19909;-57
2023/12/23 10:01:36;;;;;;;11.88;3.55;;;;;;;8.94;100.00;100822.94;5035049;28;20386;-57
2023/12/23 10:04:02;;;;;;;8.90;2.75;;;;;;;8.95;100.00;100832.59;5032647;28;20029;-57
2023/12/23 10:06:27;;;;;;;8.85;2.33;;;;;;;8.97;100.00;100832.50;5031730;28;20070;-57
2023/12/23 10:08:52;;;;;;;10.75;2.67;;;;;;;8.96;100.00;100831.66;5037052;28;20033;-57
2023/12/23 10:11:19;;;;;;;11.63;2.53;;;;;;;8.98;100.00;100832.41;5034219;28;20144;-57
2023/12/23 10:13:45;;;;;;;12.32;3.03;;;;;;;9.00;100.00;100845.53;5036026;28;20482;-57
2023/12/23 10:16:10;;;;;;;12.23;3.13;;;;;;;8.98;100.00;100840.34;5028345;28;20044;-57
2023/12/23 10:18:38;;;;;;;8.45;2.75;;;;;;;8.99;100.00;100836.75;5035572;28;20033;-57
2023/12/23 10:21:04;;;;;;;9.70;2.72;;;;;;;8.99;100.00;100834.09;5033731;28;20033;-58
2023/12/23 10:23:29;;;;;;;11.18;2.22;;;;;;;9.00;100.00;100825.19;5033775;28;20136;-57
2023/12/23 10:25:54;;;;;;;14.50;2.90;;;;;;;9.03;100.00;100843.50;5033482;28;20503;-57
2023/12/23 10:28:23;;;;;;;11.20;2.65;;;;;;;9.04;100.00;100831.97;5039065;28;20529;-57
2023/12/23 10:30:50;;;;;;;13.45;2.80;;;;;;;9.10;100.00;100819.25;5035083;28;20033;-57
2023/12/23 10:33:21;;;;;;;11.65;2.60;;;;;;;9.08;100.00;100817.53;5033802;28;20045;-55
2023/12/23 10:35:48;;;;;;;7.45;2.35;;;;;;;9.12;100.00;100825.28;5027142;28;20128;-56
2023/12/23 10:38:20;;;;;;;12.20;2.55;;;;;;;9.15;100.00;100825.06;5032527;28;20029;-57
2023/12/23 10:40:55;;;;;;;8.32;3.03;;;;;;;9.18;100.00;100823.03;5034075;28;20490;-57
2023/12/23 10:43:22;;;;;;;11.65;2.30;;;;;;;9.21;100.00;100828.13;5034091;28;20036;-56
2023/12/23 10:45:50;;;;;;;10.85;2.10;;;;;;;9.24;100.00;100840.28;5035367;28;20024;-56
2023/12/23 10:48:17;;;;;;;14.70;2.70;;;;;;;9.28;100.00;100840.94;5033228;28;20087;-56
2023/12/23 10:50:46;;;;;;;12.15;2.92;;;;;;;9.31;100.00;100838.06;5035546;28;20677;-57
2023/12/23 10:53:14;;;;;;;12.13;2.70;;;;;;;9.35;100.00;100821.81;5030163;28;20029;-57
2023/12/23 10:55:40;;;;;;;11.90;2.88;;;;;;;9.36;100.00;100828.84;5037466;28;20035;-57
2023/12/23 10:58:09;;;;;;;9.77;2.78;;;;;;;9.38;100.00;100818.13;5037115;28;20044;-56
2023/12/23 11:00:36;;;;;;;8.85;2.40;;;;;;;9.40;100.00;100824.16;5032292;28;20049;-55
2023/12/23 11:03:03;;;;;;;13.50;2.83;;;;;;;9.41;100.00;100829.34;5039159;28;20036;-57
2023/12/23 11:05:31;;;;;;;9.38;2.92;;;;;;;9.42;100.00;100832.84;5034494;28;20029;-57
2023/12/23 11:08:01;;;;;;;7.25;2.72;;;;;;;9.44;100.00;100821.19;5037862;28;20029;-55
2023/12/23 11:10:29;;;;;;;10.40;2.85;;;;;;;9.45;100.00;100812.25;5034337;28;20029;-53
2023/12/23 11:12:55;;;;;;;5.50;2.58;;;;;;;9.48;100.00;100827.09;5025075;28;20026;-56